Time;durP1;ratioP1;P1;durP2;ratioP2;P2;SDS_P1;SDS_P2;PMS_P1;PMS_P2;Temp;Humidity;BMP_temperature;BMP_pressure;BME280_temperature;BME280_humidity;BME280_pressure;Samples;Min_cycle;Max_cycle;Signal;HPM_P1;HPM_P2
2022/11/29 00:01:36;;;;;;;;;;;19.00;42.30;;;;;;5085656;28;19986;-64
2022/11/29 00:04:04;;;;;;;;;;;19.00;42.90;;;;;;5105388;28;19924;-64
2022/11/29 00:06:32;;;;;;;;;;;19.00;42.30;;;;;;5099793;28;19967;-65
2022/11/29 00:08:59;;;;;;;;;;;19.00;42.30;;;;;;5085512;28;19927;-64
2022/11/29 00:14:11;;;;;;;;;;;19.00;42.30;;;;;;5092519;28;19932;-63
2022/11/29 00:16:39;;;;;;;;;;;19.00;42.30;;;;;;5082731;28;19947;-64
2022/11/29 00:19:07;;;;;;;;;;;19.00;42.30;;;;;;5083921;28;19953;-64
2022/11/29 00:21:34;;;;;;;;;;;19.00;42.30;;;;;;5101780;28;19920;-63
2022/11/29 00:24:01;;;;;;;;;;;19.00;42.30;;;;;;5084004;28;19924;-65
2022/11/29 00:26:28;;;;;;;;;;;19.00;42.30;;;;;;5087509;28;20443;-67
2022/11/29 00:28:54;;;;;;;;;;;19.00;42.30;;;;;;5090783;28;19976;-64
2022/11/29 00:31:21;;;;;;;;;;;19.00;42.30;;;;;;5075102;28;19924;-64
2022/11/29 00:33:48;;;;;;;;;;;19.00;42.30;;;;;;5101824;28;19931;-64
2022/11/29 00:36:16;;;;;;;;;;;19.00;42.40;;;;;;5081637;28;20360;-64
2022/11/29 00:38:43;;;;;;;;;;;19.00;42.30;;;;;;5094133;28;19955;-65
2022/11/29 00:41:10;;;;;;;;;;;19.00;42.30;;;;;;5109976;28;19936;-64
2022/11/29 00:43:37;;;;;;;;;;;19.00;42.40;;;;;;5087087;28;19928;-63
2022/11/29 00:46:04;;;;;;;;;;;19.00;42.40;;;;;;5083425;28;19924;-65
2022/11/29 00:48:30;;;;;;;;;;;19.00;42.40;;;;;;5087862;28;19924;-64
2022/11/29 00:50:57;;;;;;;;;;;19.00;42.40;;;;;;5089116;28;19920;-64
2022/11/29 00:53:25;;;;;;;;;;;19.00;42.40;;;;;;5074736;28;19924;-63
2022/11/29 00:55:52;;;;;;;;;;;19.00;42.40;;;;;;5078026;28;19927;-64
2022/11/29 00:58:20;;;;;;;;;;;19.00;42.40;;;;;;5102641;28;19923;-64
2022/11/29 01:00:47;;;;;;;;;;;19.00;42.40;;;;;;5073709;28;19963;-65
2022/11/29 01:03:14;;;;;;;;;;;19.00;42.40;;;;;;5086140;28;19924;-63
2022/11/29 01:05:41;;;;;;;;;;;19.00;42.40;;;;;;5106090;28;19920;-64
2022/11/29 01:08:08;;;;;;;;;;;19.00;42.40;;;;;;5082270;28;19943;-64
2022/11/29 01:10:37;;;;;;;;;;;19.00;42.40;;;;;;5073677;28;19928;-63
2022/11/29 01:13:03;;;;;;;;;;;19.00;42.40;;;;;;5080183;28;19927;-64
2022/11/29 01:15:30;;;;;;;;;;;19.00;42.30;;;;;;5110984;28;19927;-65
2022/11/29 01:17:57;;;;;;;;;;;19.00;42.40;;;;;;5108831;28;19965;-65
2022/11/29 01:20:24;;;;;;;;;;;19.00;42.30;;;;;;5085424;28;20219;-65
2022/11/29 01:22:50;;;;;;;;;;;19.00;42.40;;;;;;5086353;28;19924;-64
2022/11/29 01:25:18;;;;;;;;;;;19.00;42.40;;;;;;5092392;28;19981;-65
2022/11/29 01:27:46;;;;;;;;;;;19.00;42.40;;;;;;5074367;28;19927;-64
2022/11/29 01:30:13;;;;;;;;;;;19.00;42.40;;;;;;5082742;28;19920;-65
2022/11/29 01:32:40;;;;;;;;;;;19.00;42.40;;;;;;5078507;28;19943;-64
2022/11/29 01:35:07;;;;;;;;;;;19.00;42.40;;;;;;5088487;28;19928;-64
2022/11/29 01:37:34;;;;;;;;;;;19.00;42.40;;;;;;5092510;28;19931;-63
2022/11/29 01:40:00;;;;;;;;;;;19.00;42.40;;;;;;5108715;28;19965;-64
2022/11/29 01:42:27;;;;;;;;;;;19.00;42.40;;;;;;5106711;28;19927;-65
2022/11/29 01:45:12;;;;;;;;;;;19.00;42.40;;;;;;5087850;28;19924;-63
2022/11/29 01:47:39;;;;;;;;;;;19.00;42.40;;;;;;5078373;28;19931;-64
2022/11/29 01:50:07;;;;;;;;;;;19.00;42.40;;;;;;5082909;28;19920;-65
2022/11/29 01:52:34;;;;;;;;;;;19.00;42.40;;;;;;5079862;28;19988;-64
2022/11/29 01:55:01;;;;;;;;;;;19.00;43.00;;;;;;5075210;28;19923;-64
2022/11/29 01:57:28;;;;;;;;;;;19.00;42.40;;;;;;5081202;28;19934;-67
2022/11/29 01:59:56;;;;;;;;;;;19.00;42.40;;;;;;5080145;28;19927;-66
2022/11/29 02:02:31;;;;;;;;;;;19.00;42.40;;;;;;5107879;28;19993;-65
2022/11/29 02:04:58;;;;;;;;;;;19.00;42.40;;;;;;5089090;28;19924;-64
2022/11/29 02:07:25;;;;;;;;;;;19.00;42.40;;;;;;5075007;28;19919;-63
2022/11/29 02:09:51;;;;;;;;;;;19.00;42.40;;;;;;5096524;28;19946;-63
2022/11/29 02:12:21;;;;;;;;;;;19.00;42.40;;;;;;5099917;28;19923;-63
2022/11/29 02:14:55;;;;;;;;;;;19.00;42.40;;;;;;5083859;28;19920;-63
2022/11/29 02:17:25;;;;;;;;;;;19.00;42.40;;;;;;5089892;28;19920;-63
2022/11/29 02:20:01;;;;;;;;;;;19.00;42.40;;;;;;5072394;28;20393;-64
2022/11/29 02:22:28;;;;;;;;;;;19.00;42.40;;;;;;5096973;28;19924;-64
2022/11/29 02:25:04;;;;;;;;;;;19.00;42.40;;;;;;5080003;28;19920;-65
2022/11/29 02:27:52;;;;;;;;;;;19.00;42.40;;;;;;5089288;28;19942;-64
2022/11/29 02:30:20;;;;;;;;;;;19.00;42.40;;;;;;5093446;28;19924;-65
2022/11/29 02:33:04;;;;;;;;;;;19.00;42.40;;;;;;5087509;28;19919;-63
2022/11/29 02:35:38;;;;;;;;;;;19.00;42.40;;;;;;5092750;28;19973;-64
2022/11/29 02:38:09;;;;;;;;;;;19.00;42.40;;;;;;5074989;28;19931;-63
2022/11/29 02:40:44;;;;;;;;;;;19.00;43.00;;;;;;5086280;28;19927;-63
2022/11/29 02:43:17;;;;;;;;;;;19.00;42.40;;;;;;5088317;28;19931;-64
2022/11/29 02:45:53;;;;;;;;;;;19.00;42.40;;;;;;5082658;28;19928;-65
2022/11/29 02:48:23;;;;;;;;;;;19.00;42.40;;;;;;5106037;28;19920;-63
2022/11/29 02:50:52;;;;;;;;;;;19.00;42.40;;;;;;5088100;28;19920;-64
2022/11/29 02:53:21;;;;;;;;;;;19.00;42.40;;;;;;5088423;28;20440;-64
2022/11/29 02:55:48;;;;;;;;;;;19.00;42.40;;;;;;5084294;28;19928;-65
2022/11/29 02:58:17;;;;;;;;;;;19.00;42.40;;;;;;5077651;28;20563;-65
2022/11/29 03:00:46;;;;;;;;;;;19.00;42.40;;;;;;5086287;28;20037;-64
2022/11/29 03:03:14;;;;;;;;;;;19.00;42.40;;;;;;5081960;28;19980;-63
2022/11/29 03:05:43;;;;;;;;;;;19.00;42.40;;;;;;5073582;28;19924;-64
2022/11/29 03:08:15;;;;;;;;;;;19.00;42.40;;;;;;5075759;28;19920;-63
2022/11/29 03:10:43;;;;;;;;;;;19.00;42.40;;;;;;5085998;28;19959;-63
2022/11/29 03:13:11;;;;;;;;;;;19.00;42.40;;;;;;5088686;28;19934;-64
2022/11/29 03:15:38;;;;;;;;;;;19.00;42.40;;;;;;5086269;28;19970;-65
2022/11/29 03:18:19;;;;;;;;;;;19.00;43.00;;;;;;5092473;28;19962;-64
2022/11/29 03:20:50;;;;;;;;;;;19.00;42.40;;;;;;5076402;28;20389;-64
2022/11/29 03:23:22;;;;;;;;;;;19.00;42.40;;;;;;5085668;28;19980;-65
2022/11/29 03:25:49;;;;;;;;;;;19.00;42.40;;;;;;5079927;28;19931;-64
2022/11/29 03:28:17;;;;;;;;;;;19.00;42.40;;;;;;5105305;28;19920;-65
2022/11/29 03:30:46;;;;;;;;;;;19.00;42.40;;;;;;5077886;28;19928;-64
2022/11/29 03:33:15;;;;;;;;;;;19.00;42.40;;;;;;5092790;28;19924;-63
2022/11/29 03:35:43;;;;;;;;;;;19.00;42.40;;;;;;5113163;28;19973;-63
2022/11/29 03:38:13;;;;;;;;;;;19.00;42.40;;;;;;5091278;28;19920;-67
2022/11/29 03:40:42;;;;;;;;;;;19.00;42.40;;;;;;5077513;28;19934;-64
2022/11/29 03:43:09;;;;;;;;;;;19.00;42.50;;;;;;5077459;28;19920;-64
2022/11/29 03:45:37;;;;;;;;;;;19.00;42.40;;;;;;5089381;28;19919;-64
2022/11/29 03:48:04;;;;;;;;;;;19.00;42.40;;;;;;5092570;28;19927;-63
2022/11/29 03:50:32;;;;;;;;;;;19.00;42.40;;;;;;5076263;28;20281;-63
2022/11/29 03:53:01;;;;;;;;;;;19.00;43.00;;;;;;5077820;28;19932;-65
2022/11/29 03:55:32;;;;;;;;;;;19.00;42.40;;;;;;5081289;28;19932;-63
2022/11/29 03:58:04;;;;;;;;;;;19.00;42.40;;;;;;5111845;28;19927;-64
2022/11/29 04:00:33;;;;;;;;;;;19.00;42.40;;;;;;5084566;28;19946;-66
2022/11/29 04:03:19;;;;;;;;;;;19.00;42.40;;;;;;5088107;28;19920;-64
2022/11/29 04:06:09;;;;;;;;;;;19.00;42.40;;;;;;5087653;28;19974;-64
2022/11/29 04:08:43;;;;;;;;;;;19.00;42.40;;;;;;5082224;28;19924;-63
2022/11/29 04:11:18;;;;;;;;;;;19.00;42.40;;;;;;5092862;28;19923;-63
2022/11/29 04:13:59;;;;;;;;;;;19.00;42.40;;;;;;5082294;28;19966;-64
2022/11/29 04:16:47;;;;;;;;;;;19.00;42.40;;;;;;5102690;28;19924;-64
2022/11/29 04:19:19;;;;;;;;;;;19.00;42.40;;;;;;5055083;28;19920;-65
2022/11/29 04:21:50;;;;;;;;;;;19.00;42.40;;;;;;5082106;28;19920;-65
2022/11/29 04:24:22;;;;;;;;;;;19.00;42.40;;;;;;5074618;28;19963;-64
2022/11/29 04:26:56;;;;;;;;;;;19.00;42.40;;;;;;5090138;28;19988;-63
2022/11/29 04:29:41;;;;;;;;;;;19.00;42.40;;;;;;5104447;28;19923;-62
2022/11/29 04:35:27;;;;;;;;;;;19.00;42.40;;;;;;5059914;27;2026237;-66
2022/11/29 04:38:02;;;;;;;;;;;19.00;42.40;;;;;;5107418;28;19919;-64
2022/11/29 04:40:36;;;;;;;;;;;19.00;42.40;;;;;;5109496;28;19927;-64
2022/11/29 04:43:10;;;;;;;;;;;19.00;42.40;;;;;;5109734;28;19976;-64
2022/11/29 04:45:45;;;;;;;;;;;19.00;42.40;;;;;;5098262;28;19919;-64
2022/11/29 04:48:16;;;;;;;;;;;19.00;42.40;;;;;;5107613;28;19923;-64
2022/11/29 04:50:48;;;;;;;;;;;19.00;42.40;;;;;;5094997;28;19920;-65
2022/11/29 04:53:31;;;;;;;;;;;19.00;42.40;;;;;;5102942;28;19927;-64
2022/11/29 04:56:01;;;;;;;;;;;19.00;42.40;;;;;;5109843;28;20377;-65
2022/11/29 04:58:30;;;;;;;;;;;19.00;42.40;;;;;;5109134;27;20258;-66
2022/11/29 05:00:58;;;;;;;;;;;19.00;42.40;;;;;;5128981;27;19919;-65
2022/11/29 05:03:35;;;;;;;;;;;19.00;42.40;;;;;;5092013;28;19999;-65
2022/11/29 05:06:06;;;;;;;;;;;19.00;42.50;;;;;;5099680;28;19920;-65
2022/11/29 05:08:33;;;;;;;;;;;19.00;42.40;;;;;;5101675;28;19924;-65
2022/11/29 05:11:02;;;;;;;;;;;19.00;42.40;;;;;;5109326;28;19920;-64
2022/11/29 05:13:31;;;;;;;;;;;19.00;42.40;;;;;;5108879;27;20034;-64
2022/11/29 05:16:13;;;;;;;;;;;19.00;42.40;;;;;;5103176;28;19928;-65
2022/11/29 05:18:54;;;;;;;;;;;19.00;42.40;;;;;;5100309;28;20014;-65
2022/11/29 05:21:24;;;;;;;;;;;19.00;42.40;;;;;;5095107;28;19935;-65
2022/11/29 05:23:53;;;;;;;;;;;19.00;42.40;;;;;;5099588;28;19924;-67
2022/11/29 05:26:22;;;;;;;;;;;19.00;42.40;;;;;;5102205;28;19927;-66
2022/11/29 05:28:50;;;;;;;;;;;19.00;42.40;;;;;;5100641;28;19934;-65
2022/11/29 05:31:29;;;;;;;;;;;19.00;42.40;;;;;;5126595;28;20629;-67
2022/11/29 05:34:04;;;;;;;;;;;19.00;42.40;;;;;;5104711;28;19927;-65
2022/11/29 05:36:37;;;;;;;;;;;19.00;42.40;;;;;;5117157;28;19920;-65
2022/11/29 05:39:08;;;;;;;;;;;19.00;42.40;;;;;;5106116;28;19924;-67
2022/11/29 05:41:39;;;;;;;;;;;19.00;42.40;;;;;;5108533;28;19919;-64
2022/11/29 05:44:08;;;;;;;;;;;19.00;42.40;;;;;;5101549;28;19920;-64
2022/11/29 05:46:36;;;;;;;;;;;19.00;42.40;;;;;;5093784;28;19931;-65
2022/11/29 05:49:04;;;;;;;;;;;19.00;42.40;;;;;;5094398;28;20388;-67
2022/11/29 05:51:37;;;;;;;;;;;19.00;42.40;;;;;;5094408;28;19920;-64
2022/11/29 05:54:05;;;;;;;;;;;19.00;42.40;;;;;;5090560;28;19955;-65
2022/11/29 05:56:36;;;;;;;;;;;19.00;42.40;;;;;;5094850;28;19919;-65
2022/11/29 05:59:04;;;;;;;;;;;19.00;42.40;;;;;;5091506;28;19928;-66
2022/11/29 06:01:33;;;;;;;;;;;19.00;42.40;;;;;;5093736;28;19969;-66
2022/11/29 06:04:02;;;;;;;;;;;19.00;42.40;;;;;;5093720;28;19920;-65
2022/11/29 06:06:31;;;;;;;;;;;19.00;42.40;;;;;;5091158;28;19923;-65
2022/11/29 06:09:00;;;;;;;;;;;19.00;42.40;;;;;;5107554;28;19924;-64
2022/11/29 06:11:28;;;;;;;;;;;19.00;42.40;;;;;;5091046;28;19920;-66
2022/11/29 06:14:00;;;;;;;;;;;19.00;42.40;;;;;;5088250;28;19976;-66
2022/11/29 06:16:34;;;;;;;;;;;19.00;42.40;;;;;;5091459;28;19972;-68
2022/11/29 06:19:19;;;;;;;;;;;19.00;42.40;;;;;;5106244;28;19924;-65
2022/11/29 06:21:48;;;;;;;;;;;19.00;42.40;;;;;;5107836;28;19965;-63
2022/11/29 06:24:23;;;;;;;;;;;19.00;42.40;;;;;;5090049;28;19943;-66
2022/11/29 06:26:55;;;;;;;;;;;19.00;42.40;;;;;;5073718;28;19924;-65
2022/11/29 06:29:26;;;;;;;;;;;19.00;42.40;;;;;;5088475;28;19920;-66
2022/11/29 06:31:54;;;;;;;;;;;19.00;42.40;;;;;;5111714;28;19965;-65
2022/11/29 06:34:22;;;;;;;;;;;19.00;42.40;;;;;;5085568;28;19920;-66
2022/11/29 06:36:50;;;;;;;;;;;19.00;42.40;;;;;;5093888;28;19931;-65
2022/11/29 06:39:17;;;;;;;;;;;19.00;42.40;;;;;;5078353;28;19972;-65
2022/11/29 06:41:45;;;;;;;;;;;19.00;42.40;;;;;;5091003;28;19920;-66
2022/11/29 06:44:12;;;;;;;;;;;19.00;42.40;;;;;;5090968;28;19931;-65
2022/11/29 06:46:44;;;;;;;;;;;19.00;42.40;;;;;;5093572;28;19920;-67
2022/11/29 06:49:12;;;;;;;;;;;19.00;42.40;;;;;;5080644;28;19932;-66
2022/11/29 06:51:40;;;;;;;;;;;19.00;42.40;;;;;;5081552;28;19927;-65
2022/11/29 06:54:10;;;;;;;;;;;19.00;42.40;;;;;;5092638;28;19924;-65
2022/11/29 06:56:39;;;;;;;;;;;19.00;42.40;;;;;;5110578;28;19924;-65
2022/11/29 06:59:08;;;;;;;;;;;19.00;42.40;;;;;;5092479;28;19926;-67
2022/11/29 07:01:37;;;;;;;;;;;19.00;42.40;;;;;;5093042;28;19924;-65
2022/11/29 07:04:20;;;;;;;;;;;19.00;42.40;;;;;;5092280;28;19920;-65
2022/11/29 07:06:47;;;;;;;;;;;19.00;42.40;;;;;;5089314;28;19919;-66
2022/11/29 07:09:14;;;;;;;;;;;19.00;42.30;;;;;;5095933;28;19976;-65
2022/11/29 07:11:41;;;;;;;;;;;19.00;42.30;;;;;;5092340;28;19932;-66
2022/11/29 07:14:10;;;;;;;;;;;19.00;42.30;;;;;;5088987;28;20010;-65
2022/11/29 07:16:37;;;;;;;;;;;19.00;42.30;;;;;;5092132;28;19926;-66
2022/11/29 07:19:06;;;;;;;;;;;19.00;42.30;;;;;;5088402;28;19951;-65
2022/11/29 07:21:38;;;;;;;;;;;19.00;42.30;;;;;;5089425;28;19985;-65
2022/11/29 07:24:07;;;;;;;;;;;19.00;42.30;;;;;;5072322;28;20117;-65
2022/11/29 07:26:35;;;;;;;;;;;19.00;42.30;;;;;;5092356;28;19930;-65
2022/11/29 07:29:09;;;;;;;;;;;19.00;42.30;;;;;;5091490;28;19927;-66
2022/11/29 07:31:41;;;;;;;;;;;19.00;42.30;;;;;;5088868;28;19963;-65
2022/11/29 07:34:09;;;;;;;;;;;19.00;42.30;;;;;;5082467;28;19927;-65
2022/11/29 07:36:38;;;;;;;;;;;19.00;42.30;;;;;;5088091;28;19980;-65
2022/11/29 07:39:12;;;;;;;;;;;19.00;42.20;;;;;;5091147;28;19943;-67
2022/11/29 07:41:40;;;;;;;;;;;19.00;42.20;;;;;;5091742;28;19919;-64
2022/11/29 07:44:10;;;;;;;;;;;19.00;42.20;;;;;;5104990;28;20068;-66
2022/11/29 07:46:36;;;;;;;;;;;19.00;42.20;;;;;;5090748;28;19923;-64
2022/11/29 07:49:05;;;;;;;;;;;19.00;42.30;;;;;;5091623;28;19919;-68
2022/11/29 07:51:32;;;;;;;;;;;19.00;42.20;;;;;;5087263;28;19920;-66
2022/11/29 07:53:59;;;;;;;;;;;19.00;42.20;;;;;;5089397;28;20010;-63
2022/11/29 07:56:25;;;;;;;;;;;19.00;42.20;;;;;;5091147;28;19920;-67
2022/11/29 07:58:52;;;;;;;;;;;19.00;42.30;;;;;;5101780;28;19990;-64
2022/11/29 08:01:19;;;;;;;;;;;19.00;42.20;;;;;;5107865;28;19924;-65
2022/11/29 08:03:46;;;;;;;;;;;19.00;42.20;;;;;;5080179;28;20243;-66
2022/11/29 08:06:14;;;;;;;;;;;19.00;42.20;;;;;;5080654;28;19920;-65
2022/11/29 08:08:41;;;;;;;;;;;19.00;42.20;;;;;;5111465;27;19972;-65
2022/11/29 08:11:08;;;;;;;;;;;19.00;42.20;;;;;;5089066;28;19920;-66
2022/11/29 08:13:35;;;;;;;;;;;19.00;42.20;;;;;;5084805;28;19924;-67
2022/11/29 08:16:02;;;;;;;;;;;19.00;42.20;;;;;;5097844;28;19919;-67
2022/11/29 08:18:29;;;;;;;;;;;19.00;42.30;;;;;;5094451;28;19941;-66
2022/11/29 08:20:55;;;;;;;;;;;19.00;42.20;;;;;;5097791;28;19926;-66
2022/11/29 08:23:23;;;;;;;;;;;19.00;42.30;;;;;;5095454;28;19984;-64
2022/11/29 08:25:50;;;;;;;;;;;19.00;42.30;;;;;;5092184;28;20323;-65
2022/11/29 08:28:17;;;;;;;;;;;19.00;42.20;;;;;;5085774;28;19927;-65
2022/11/29 08:30:44;;;;;;;;;;;19.00;42.20;;;;;;5089877;28;19919;-64
2022/11/29 08:33:11;;;;;;;;;;;19.00;42.20;;;;;;5091186;28;19973;-65
2022/11/29 08:35:38;;;;;;;;;;;19.00;42.20;;;;;;5114954;28;19940;-65
2022/11/29 08:38:05;;;;;;;;;;;19.00;42.20;;;;;;5112503;28;19963;-67
2022/11/29 08:40:33;;;;;;;;;;;19.00;42.20;;;;;;5096086;28;19926;-66
2022/11/29 08:43:00;;;;;;;;;;;19.00;42.20;;;;;;5094266;28;19920;-66
2022/11/29 08:45:27;;;;;;;;;;;19.00;42.20;;;;;;5111926;28;19920;-65
2022/11/29 08:47:54;;;;;;;;;;;19.00;42.30;;;;;;5084775;28;19924;-64
2022/11/29 08:50:21;;;;;;;;;;;19.00;42.20;;;;;;5080419;28;19974;-66
2022/11/29 08:55:34;;;;;;;;;;;19.00;42.20;;;;;;5088915;28;19927;-65
2022/11/29 08:58:02;;;;;;;;;;;19.00;42.20;;;;;;5085754;28;19920;-63
2022/11/29 09:00:28;;;;;;;;;;;19.10;42.30;;;;;;5114385;28;19920;-65
2022/11/29 09:03:58;;;;;;;;;;;19.10;42.30;;;;;;5080792;28;19927;-65
2022/11/29 09:05:42;;;;;;;;;;;19.10;42.30;;;;;;5090528;28;20365;-66
2022/11/29 09:08:09;;;;;;;;;;;19.10;42.30;;;;;;5093127;28;19973;-64
2022/11/29 09:10:39;;;;;;;;;;;19.10;42.30;;;;;;5095818;28;19926;-64
2022/11/29 09:13:06;;;;;;;;;;;19.10;42.30;;;;;;5096358;28;19983;-65
2022/11/29 09:15:32;;;;;;;;;;;19.10;42.30;;;;;;5096425;28;19919;-65
2022/11/29 09:17:59;;;;;;;;;;;19.10;42.30;;;;;;5112337;28;19981;-63
2022/11/29 09:20:26;;;;;;;;;;;19.10;42.30;;;;;;5098019;28;20303;-63
2022/11/29 09:22:53;;;;;;;;;;;19.10;42.30;;;;;;5095967;28;19972;-64
2022/11/29 09:25:19;;;;;;;;;;;19.10;42.30;;;;;;5115551;28;19923;-63
2022/11/29 09:27:48;;;;;;;;;;;19.10;42.30;;;;;;5104942;28;19920;-65
2022/11/29 09:30:17;;;;;;;;;;;19.10;42.30;;;;;;5097535;28;19924;-64
2022/11/29 09:32:45;;;;;;;;;;;19.10;42.30;;;;;;5100128;28;19926;-64
2022/11/29 09:35:15;;;;;;;;;;;19.10;42.30;;;;;;5099649;28;20036;-65
2022/11/29 09:37:42;;;;;;;;;;;19.10;42.30;;;;;;5100006;28;19926;-65
2022/11/29 09:40:09;;;;;;;;;;;19.10;42.30;;;;;;5097767;28;19919;-67
2022/11/29 09:42:40;;;;;;;;;;;19.10;42.30;;;;;;5115940;28;19920;-68
2022/11/29 09:45:09;;;;;;;;;;;19.10;42.20;;;;;;5097271;28;19924;-66
2022/11/29 09:47:40;;;;;;;;;;;19.10;42.30;;;;;;5114261;28;20370;-66
2022/11/29 09:50:12;;;;;;;;;;;19.20;42.30;;;;;;5098749;28;19969;-65
2022/11/29 09:52:42;;;;;;;;;;;19.10;42.30;;;;;;5100293;28;19920;-65
2022/11/29 09:55:14;;;;;;;;;;;19.10;42.20;;;;;;5097727;28;20005;-63
2022/11/29 09:57:42;;;;;;;;;;;19.10;42.20;;;;;;5097764;28;20358;-65
2022/11/29 10:00:14;;;;;;;;;;;19.10;42.20;;;;;;5078551;28;19920;-64
2022/11/29 10:02:44;;;;;;;;;;;19.10;42.20;;;;;;5076858;28;19926;-65
2022/11/29 10:05:13;;;;;;;;;;;19.10;42.30;;;;;;5088844;28;19919;-65
2022/11/29 10:07:40;;;;;;;;;;;19.10;42.20;;;;;;5112759;28;19930;-67
2022/11/29 10:10:08;;;;;;;;;;;19.10;42.20;;;;;;5095940;28;19951;-66
2022/11/29 10:12:36;;;;;;;;;;;19.10;42.20;;;;;;5097005;28;19923;-67
2022/11/29 10:15:07;;;;;;;;;;;19.20;42.30;;;;;;5096526;28;20384;-65
2022/11/29 10:17:37;;;;;;;;;;;19.20;42.30;;;;;;5099000;28;19958;-65
2022/11/29 10:20:04;;;;;;;;;;;19.20;42.30;;;;;;5096625;28;19920;-65
2022/11/29 10:22:34;;;;;;;;;;;19.20;42.30;;;;;;5098398;28;19927;-65
2022/11/29 10:25:01;;;;;;;;;;;19.20;42.30;;;;;;5096488;28;19920;-67
2022/11/29 10:27:28;;;;;;;;;;;19.10;42.20;;;;;;5086821;28;19973;-67
2022/11/29 10:29:55;;;;;;;;;;;19.20;42.30;;;;;;5094419;28;19966;-66
2022/11/29 10:32:23;;;;;;;;;;;19.20;42.30;;;;;;5094952;28;19926;-67
2022/11/29 10:34:51;;;;;;;;;;;19.20;42.30;;;;;;5097065;28;19919;-67
2022/11/29 10:37:18;;;;;;;;;;;19.20;42.30;;;;;;5098900;28;19923;-65
2022/11/29 10:39:45;;;;;;;;;;;19.20;42.20;;;;;;5096297;28;19927;-65
2022/11/29 10:42:47;;;;;;;;;;;19.20;42.20;;;;;;5115994;28;19927;-66
2022/11/29 10:44:59;;;;;;;;;;;19.20;42.30;;;;;;5096351;28;19958;-65
2022/11/29 10:47:26;;;;;;;;;;;19.20;42.20;;;;;;5095965;28;19920;-66
2022/11/29 10:49:55;;;;;;;;;;;19.20;42.20;;;;;;5093643;28;19920;-66
2022/11/29 10:52:22;;;;;;;;;;;19.20;42.20;;;;;;5095277;28;19920;-66
2022/11/29 10:54:49;;;;;;;;;;;19.20;42.30;;;;;;5112148;28;19965;-66
2022/11/29 10:57:17;;;;;;;;;;;19.20;42.20;;;;;;5097084;28;19920;-65
2022/11/29 10:59:57;;;;;;;;;;;19.20;42.20;;;;;;5098984;28;19919;-66
2022/11/29 11:02:24;;;;;;;;;;;19.20;42.20;;;;;;5096462;28;19927;-65
2022/11/29 11:04:51;;;;;;;;;;;19.20;42.20;;;;;;5098748;28;19927;-65
2022/11/29 11:07:23;;;;;;;;;;;19.20;42.20;;;;;;5094547;28;19972;-64
2022/11/29 11:09:51;;;;;;;;;;;19.20;42.20;;;;;;5092917;28;19932;-65
2022/11/29 11:12:18;;;;;;;;;;;19.20;42.20;;;;;;5095230;28;19945;-65
2022/11/29 11:14:45;;;;;;;;;;;19.20;42.20;;;;;;5092061;28;19941;-68
2022/11/29 11:17:16;;;;;;;;;;;19.20;42.20;;;;;;5089854;28;19947;-66
2022/11/29 11:19:43;;;;;;;;;;;19.20;42.80;;;;;;5116005;28;19920;-66
2022/11/29 11:22:10;;;;;;;;;;;19.20;42.20;;;;;;5095261;28;19938;-66
2022/11/29 11:24:40;;;;;;;;;;;19.20;42.20;;;;;;5097343;28;19920;-65
2022/11/29 11:27:07;;;;;;;;;;;19.20;42.20;;;;;;5096108;28;20011;-67
2022/11/29 11:29:35;;;;;;;;;;;19.20;42.20;;;;;;5087138;28;19924;-66
2022/11/29 11:32:02;;;;;;;;;;;19.20;42.20;;;;;;5086157;28;19973;-66
2022/11/29 11:34:30;;;;;;;;;;;19.20;42.20;;;;;;5094825;28;19924;-64
2022/11/29 11:37:12;;;;;;;;;;;19.20;42.20;;;;;;5112409;28;19920;-65
2022/11/29 11:39:40;;;;;;;;;;;19.20;42.20;;;;;;5113459;28;19919;-65
2022/11/29 11:44:52;;;;;;;;;;;19.20;42.20;;;;;;5094996;28;19920;-66
2022/11/29 11:47:19;;;;;;;;;;;19.20;42.20;;;;;;5096867;28;19920;-64
2022/11/29 11:49:47;;;;;;;;;;;19.20;42.20;;;;;;5113512;28;20312;-64
2022/11/29 11:52:14;;;;;;;;;;;19.20;42.10;;;;;;5085738;28;20304;-66
2022/11/29 11:54:42;;;;;;;;;;;19.20;42.10;;;;;;5084096;28;19923;-68
2022/11/29 11:57:15;;;;;;;;;;;19.20;42.10;;;;;;5094648;28;19920;-65
2022/11/29 11:59:42;;;;;;;;;;;19.20;42.10;;;;;;5094728;28;19970;-65
2022/11/29 12:02:16;;;;;;;;;;;19.20;42.10;;;;;;5095986;28;19919;-66
2022/11/29 12:04:43;;;;;;;;;;;19.20;42.10;;;;;;5096796;28;20354;-66
2022/11/29 12:07:10;;;;;;;;;;;19.30;42.20;;;;;;5094746;28;19924;-66
2022/11/29 12:09:37;;;;;;;;;;;19.20;42.10;;;;;;5096824;28;20380;-66
2022/11/29 12:12:08;;;;;;;;;;;19.20;42.10;;;;;;5093087;28;19919;-66
2022/11/29 12:14:37;;;;;;;;;;;19.20;42.10;;;;;;5094105;28;19955;-66
2022/11/29 12:17:06;;;;;;;;;;;19.30;42.20;;;;;;5087666;28;19920;-65
2022/11/29 12:19:35;;;;;;;;;;;19.30;42.20;;;;;;5100655;27;19919;-66
2022/11/29 12:22:03;;;;;;;;;;;19.30;42.20;;;;;;5096133;28;20006;-65
2022/11/29 12:24:30;;;;;;;;;;;19.30;42.20;;;;;;5096906;28;19926;-63
2022/11/29 12:26:58;;;;;;;;;;;19.30;42.30;;;;;;5094694;28;19920;-65
2022/11/29 12:29:27;;;;;;;;;;;19.30;42.30;;;;;;5096585;28;19927;-63
2022/11/29 12:31:56;;;;;;;;;;;19.30;42.30;;;;;;5096516;28;19920;-64
2022/11/29 12:34:27;;;;;;;;;;;19.30;42.30;;;;;;5092792;28;19920;-64
2022/11/29 12:36:55;;;;;;;;;;;19.30;42.30;;;;;;5092103;28;19920;-64
2022/11/29 12:39:26;;;;;;;;;;;19.30;42.30;;;;;;5112119;28;19927;-63
2022/11/29 12:41:54;;;;;;;;;;;19.30;42.30;;;;;;5111264;28;20276;-63
2022/11/29 12:44:37;;;;;;;;;;;19.30;42.30;;;;;;5096052;28;19931;-63
2022/11/29 12:47:07;;;;;;;;;;;19.30;42.30;;;;;;5091064;28;19924;-64
2022/11/29 12:49:34;;;;;;;;;;;19.30;42.30;;;;;;5093932;28;19920;-66
2022/11/29 12:52:02;;;;;;;;;;;19.30;42.30;;;;;;5073542;28;19927;-67
2022/11/29 12:54:33;;;;;;;;;;;19.30;42.30;;;;;;5073680;28;20368;-67
2022/11/29 12:57:01;;;;;;;;;;;19.30;42.30;;;;;;5084649;28;20258;-66
2022/11/29 12:59:32;;;;;;;;;;;19.30;42.30;;;;;;5083045;28;19920;-66
2022/11/29 13:02:07;;;;;;;;;;;19.30;42.30;;;;;;5098797;28;19957;-66
2022/11/29 13:04:36;;;;;;;;;;;19.30;42.40;;;;;;5100144;28;19942;-66
2022/11/29 13:07:04;;;;;;;;;;;19.30;42.40;;;;;;5094808;28;19927;-66
2022/11/29 13:09:49;;;;;;;;;;;19.30;42.40;;;;;;5079455;28;19924;-66
2022/11/29 13:12:17;;;;;;;;;;;19.30;42.40;;;;;;5071891;28;19919;-65
2022/11/29 13:14:47;;;;;;;;;;;19.30;42.40;;;;;;5097708;28;19927;-65
2022/11/29 13:17:17;;;;;;;;;;;19.30;42.40;;;;;;5089224;28;20246;-65
2022/11/29 13:19:45;;;;;;;;;;;19.30;42.40;;;;;;5113126;28;19920;-68
2022/11/29 13:22:13;;;;;;;;;;;19.30;42.50;;;;;;5075923;28;19924;-66
2022/11/29 13:24:41;;;;;;;;;;;19.30;42.50;;;;;;5078372;28;19927;-65
2022/11/29 13:27:09;;;;;;;;;;;19.30;42.40;;;;;;5097491;28;19920;-65
2022/11/29 13:29:36;;;;;;;;;;;19.30;42.50;;;;;;5077376;28;19927;-66
2022/11/29 13:32:04;;;;;;;;;;;19.30;42.50;;;;;;5080099;28;19924;-65
2022/11/29 13:34:32;;;;;;;;;;;19.30;42.50;;;;;;5097568;28;19920;-65
2022/11/29 13:37:01;;;;;;;;;;;19.30;42.50;;;;;;5082724;28;19969;-65
2022/11/29 13:39:43;;;;;;;;;;;19.30;42.60;;;;;;5085039;28;19973;-66
2022/11/29 13:42:11;;;;;;;;;;;19.30;42.60;;;;;;5077304;28;19920;-65
2022/11/29 13:44:39;;;;;;;;;;;19.40;42.70;;;;;;5099374;28;19920;-67
2022/11/29 13:47:06;;;;;;;;;;;19.40;42.70;;;;;;5079174;28;19965;-67
2022/11/29 13:49:51;;;;;;;;;;;19.40;42.70;;;;;;5092690;28;19920;-66
2022/11/29 13:52:24;;;;;;;;;;;19.40;42.80;;;;;;5100021;28;19927;-65
2022/11/29 13:55:03;;;;;;;;;;;19.40;42.70;;;;;;5097763;28;19920;-65
2022/11/29 13:57:29;;;;;;;;;;;19.40;42.80;;;;;;5097279;28;20354;-64
2022/11/29 13:59:56;;;;;;;;;;;19.40;42.80;;;;;;5077470;28;19949;-65
2022/11/29 14:02:29;;;;;;;;;;;19.40;42.80;;;;;;5098927;28;19920;-64
2022/11/29 14:04:57;;;;;;;;;;;19.40;42.80;;;;;;5077377;28;19927;-66
2022/11/29 14:07:24;;;;;;;;;;;19.40;42.80;;;;;;5079110;28;20334;-66
2022/11/29 14:09:51;;;;;;;;;;;19.40;42.80;;;;;;5079068;28;19924;-65
2022/11/29 14:12:29;;;;;;;;;;;19.40;42.80;;;;;;5108370;28;19919;-66
2022/11/29 14:14:57;;;;;;;;;;;19.40;42.80;;;;;;5098741;28;19926;-66
2022/11/29 14:17:34;;;;;;;;;;;19.40;42.80;;;;;;5082771;28;20262;-66
2022/11/29 14:20:15;;;;;;;;;;;19.40;42.80;;;;;;5108835;28;19920;-66
2022/11/29 14:22:57;;;;;;;;;;;19.40;42.80;;;;;;5074968;28;19920;-65
2022/11/29 14:25:25;;;;;;;;;;;19.40;42.80;;;;;;5074761;28;19920;-65
2022/11/29 14:27:56;;;;;;;;;;;19.40;42.90;;;;;;5094858;28;19947;-65
2022/11/29 14:30:47;;;;;;;;;;;19.40;42.80;;;;;;5114541;28;19920;-65
2022/11/29 14:33:25;;;;;;;;;;;19.40;42.90;;;;;;5100977;28;19927;-65
2022/11/29 14:35:56;;;;;;;;;;;19.40;42.80;;;;;;5099024;28;19976;-65
2022/11/29 14:38:24;;;;;;;;;;;19.40;42.80;;;;;;5096404;28;19920;-66
2022/11/29 14:40:54;;;;;;;;;;;19.40;42.90;;;;;;5086308;28;19931;-67
2022/11/29 14:43:21;;;;;;;;;;;19.40;42.90;;;;;;5077128;28;19920;-66